Location Glendale, AZ, US

ob KWR6634 051715Z AUTO 07000G01KT SCT120 17/11 A3008 RMK SLPNO 

2019.12.05 1715 UTC
Wind from the ENE (68 degrees) at Calm MPH ( KT) gusting to 1.0 MPH (1 KT)
Visibility    Mile(s)
Sky Conditions  partly cloudy
Temperature 63.20 F (17 C)
Dew Point 51.25 F (11 C)
Relative Humidity 65%
Pressure   30.08 in. Hg (1019 hPa)
Rain  0.00 in.
Daily Rain  in.

Station Name  My Glendale Arizona Weather Station
Longitude, Latitude  -112.20133199999998, 33.58645
Elevation 1180
Station URL www.myglendalewxs.com
Software Type VWS V15.00